createdAt,value
2023-11-12T00:10:36.935Z,89.54
2023-11-12T00:25:40.937Z,88.38
2023-11-12T00:40:44.794Z,90.01
2023-11-12T00:55:49.448Z,89.50
2023-11-12T01:10:53.930Z,89.22
2023-11-12T01:25:58.043Z,89.78
2023-11-12T01:41:02.688Z,91.08
2023-11-12T01:56:09.339Z,91.73
2023-11-12T02:11:13.167Z,91.72
2023-11-12T02:26:17.151Z,91.06
2023-11-12T02:41:20.505Z,91.12
2023-11-12T02:56:25.423Z,92.03
2023-11-12T03:11:29.105Z,90.52
2023-11-12T03:26:32.544Z,90.77
2023-11-12T03:41:37.403Z,90.07
2023-11-12T03:56:40.736Z,90.36
2023-11-12T04:11:43.868Z,89.96
2023-11-12T04:26:47.136Z,90.83
2023-11-12T04:41:50.348Z,90.35
2023-11-12T04:56:53.698Z,87.67
2023-11-12T05:11:58.039Z,89.81
2023-11-12T05:27:01.641Z,90.07
2023-11-12T05:42:05.576Z,86.98
2023-11-12T05:57:08.913Z,88.39
2023-11-12T06:12:12.212Z,88.37
2023-11-12T06:27:16.192Z,88.19
2023-11-12T06:42:19.660Z,88.07
2023-11-12T06:57:22.961Z,88.51
2023-11-12T07:12:27.652Z,87.25
2023-11-12T07:27:30.969Z,88.21
2023-11-12T07:42:35.896Z,88.45
2023-11-12T07:57:39.756Z,88.47
2023-11-12T08:12:43.289Z,87.62
2023-11-12T08:27:46.554Z,87.50
2023-11-12T08:42:49.723Z,87.14
2023-11-12T08:57:52.903Z,84.94
2023-11-12T09:12:56.051Z,83.84
2023-11-12T09:27:59.394Z,80.46
2023-11-12T09:43:05.259Z,78.13
2023-11-12T09:58:09.719Z,79.32
2023-11-12T10:13:12.926Z,79.93
2023-11-12T10:28:18.421Z,82.35
2023-11-12T10:43:21.900Z,80.29
2023-11-12T10:58:26.585Z,76.14
2023-11-12T11:13:31.142Z,78.24
2023-11-12T11:28:34.779Z,79.40
2023-11-12T11:43:38.692Z,78.90
2023-11-12T11:58:46.664Z,78.46
2023-11-12T12:13:57.655Z,77.13
2023-11-12T12:29:00.801Z,75.89
2023-11-12T12:44:04.439Z,76.78
2023-11-12T12:59:08.154Z,75.24
2023-11-12T13:14:12.143Z,74.00
2023-11-12T13:29:16.218Z,75.62
2023-11-12T13:44:19.505Z,75.59
2023-11-12T13:59:22.836Z,76.23
2023-11-12T14:14:26.293Z,76.40
2023-11-12T14:29:31.911Z,77.64
2023-11-12T14:44:35.177Z,78.35
2023-11-12T14:59:38.441Z,78.39
2023-11-12T15:14:41.640Z,77.01
2023-11-12T15:29:47.398Z,80.40
2023-11-12T15:44:52.814Z,83.94
2023-11-12T15:59:56.117Z,83.02
2023-11-12T16:14:59.400Z,83.62
2023-11-12T16:30:03.161Z,82.80
2023-11-12T16:45:07.691Z,82.75
2023-11-12T17:00:14.127Z,83.15
2023-11-12T17:15:17.327Z,83.41
2023-11-12T17:30:20.656Z,83.50
2023-11-12T17:45:25.095Z,83.87
2023-11-12T18:00:29.588Z,84.42
2023-11-12T18:15:33.740Z,86.03
2023-11-12T18:30:40.026Z,85.15
2023-11-12T18:45:51.966Z,83.45
2023-11-12T19:01:01.909Z,83.65
2023-11-12T19:16:09.461Z,84.03
2023-11-12T19:31:25.221Z,84.66
2023-11-12T19:46:36.807Z,85.53
2023-11-12T20:01:41.400Z,85.94
2023-11-12T20:16:45.488Z,86.31
2023-11-12T20:31:49.838Z,86.55
2023-11-12T20:46:55.143Z,85.99
2023-11-12T21:02:00.557Z,86.14
2023-11-12T21:17:07.930Z,84.93
2023-11-12T21:32:12.256Z,85.66
2023-11-12T21:47:17.015Z,86.56
2023-11-12T22:02:20.739Z,88.04
2023-11-12T22:17:26.093Z,88.21
2023-11-12T22:32:29.304Z,87.69
2023-11-12T22:47:33.429Z,87.33
2023-11-12T23:02:36.798Z,87.46
2023-11-12T23:17:40.087Z,87.93
2023-11-12T23:32:43.598Z,87.71
2023-11-12T23:47:47.017Z,88.46
